Last 30 Days

Squaw-Belmont 8000'

Daily Data | America/Los_Angeles
as of 5/30/20 8:42 PM PDT
Date Daily Max Temp (°F) Max Temp Time Daily Min Temp (°F) Min Temp Time Daily Rain (In) Seasonal Rainfall (In) New Snow (in) SnowDepth (in) Wind Spd (mph) Daily Max Wind (mph) Max Wind Time Max Wind Dir (°) Max RH (%) Min RH (%) Wet Bulb (°F) WetB Hrs <28F (hrs) Bat Volt Min Day (V)
5/29/20 69.8 1406 52.0 1904 0.04 95.80 0.0 35.3 5.1 24.7 1841 SSE | 153 75 22 45.9 0.0 13.0
5/28/20 69.4 1559 53.6 0530 0.00 95.80 0.0 38.0 4.9 18.6 1646 WSW | 251 48 16 44.1 0.0 13.0
5/27/20 65.6 1251 52.1 0538 0.00 95.80 0.0 41.4 6.0 16.4 2349 SSW | 205 72 29 47.3 0.0 13.0
5/26/20 66.2 1415 50.4 0431 0.00 95.80 0.0 44.9 3.3 24.4 1618 NW | 315 73 41 48.6 0.0 13.0
5/25/20 63.0 1609 45.1 0511 0.00 95.80 0.0 48.0 3.8 15.3 1903 WSW | 240 71 30 43.4 0.0 12.9
5/24/20 56.3 1643 37.9 0333 0.00 95.80 0.0 50.8 2.7 10.6 1546 NNE | 29 73 31 37.9 0.0 12.8
5/23/20 51.5 1629 27.8 0511 0.00 95.80 0.0 53.0 4.6 14.8 0857 E | 98 77 30 32.4 7.0 12.8
5/22/20 44.0 1319 31.2 2359 0.00 95.80 0.0 55.1 8.2 33.6 0526 SSW | 207 93 37 32.5 2.9 12.8
5/21/20 50.1 0713 31.2 0418 0.00 95.80 0.0 56.6 6.9 25.3 2258 SSW | 202 99 21 35.4 0.0 12.8
5/20/20 36.6 1534 27.6 0309 0.16 95.80 0.0 58.7 6.0 18.1 0921 WSW | 252 100 86 32.2 0.5 12.9
5/19/20 34.6 1331 25.2 0404 0.22 95.60 0.5 60.8 7.2 21.2 1652 WNW | 300 100 82 28.7 9.1 12.9
5/18/20 32.0 0006 26.0 2352 1.18 95.40 5.7 62.1 9.9 37.4 0525 SSW | 200 100 92 28.4 10.9 12.9
5/17/20 39.4 0710 31.9 2350 1.82 94.20 0.0 54.7 15.7 45.5 1445 S | 190 100 59 35.3 0.0 13.0
5/16/20 50.8 1448 37.6 2355 0.00 92.40 0.0 56.0 7.0 37.0 2219 SW | 222 92 43 38.3 0.0 12.8
5/15/20 47.7 1403 29.4 0218 0.00 92.40 0.0 58.9 3.9 14.6 0037 SW | 214 99 44 36.0 0.0 12.8
5/14/20 35.5 1345 28.8 0549 0.28 92.40 2.1 60.4 8.7 28.3 1446 WSW | 250 100 88 31.2 0.1 12.9
5/13/20 37.4 1105 26.6 0604 0.27 92.10 1.7 60.4 10.2 35.8 2341 WSW | 247 100 66 29.8 5.6 12.9
5/12/20 33.2 0329 28.5 2351 0.48 91.80 0.6 59.7 13.4 46.2 0318 SW | 214 100 90 30.9 0.0 13.0
5/11/20 45.8 1248 31.5 2357 0.00 91.40 0.0 59.4 12.1 45.7 2232 WSW | 250 96 31 33.2 0.0 12.8
5/10/20 56.9 1405 41.7 2205 0.00 91.40 0.0 61.3 8.7 28.1 1552 WSW | 244 74 37 41.1 0.0 12.9
5/9/20 62.1 1345 44.0 0542 0.00 91.40 0.0 63.6 4.4 22.3 2355 SSW | 211 56 22 40.0 0.0 12.9
5/8/20 61.2 1254 40.7 0422 0.00 91.40 0.0 65.5 3.3 13.2 1534 S | 190 45 16 37.9 0.0 12.9
5/7/20 53.7 1635 34.3 0547 0.00 91.40 0.0 67.1 2.5 12.6 1121 ENE | 77 50 24 34.2 0.1 12.9
5/6/20 53.8 1518 39.1 0048 0.00 91.40 0.0 68.5 6.5 29.1 0218 WSW | 257 47 11 32.5 2.2 12.9
5/5/20 51.5 1434 38.2 0257 0.00 91.40 0.0 69.9 7.4 28.8 1604 SSW | 202 53 19 33.5 0.0 12.9
5/4/20 51.0 1338 28.0 0454 0.00 91.40 0.0 72.1 2.6 15.4 1527 NW | 325 48 14 29.7 7.0 12.8
5/3/20 44.9 1220 31.7 2225 0.00 91.40 0.0 73.1 8.1 26.5 0030 SW | 233 91 18 32.1 1.6 12.8
5/2/20 45.4 1349 34.3 2356 0.00 91.40 0.0 74.3 10.3 35.3 1151 SW | 219 90 40 33.2 0.0 12.8
5/1/20 50.4 1320 34.6 0602 0.00 91.40 0.0 75.5 7.3 20.6 0005 WSW | 237 80 36 34.6 0.0 12.8
4/30/20 47.8 1316 36.4 2229 0.00 91.40 0.0 77.1 10.0 28.5 1050 SW | 218 92 40 37.1 0.0 12.8
Max 69.8 - 53.6 - 1.82 - 5.7 77.1 15.7 46.2 - - 100 92 48.6 10.9 13.0
Avg - - - - - - 0.4 59.4 7.0 - - - - - 35.9 - -
Min 32.0 - 25.2 - 0.00 - 0.0 35.3 2.5 10.6 - - 45 11 28.4 0.0 12.8